Time;durP1;ratioP1;P1;durP2;ratioP2;P2;SDS_P1;SDS_P2;PMS_P1;PMS_P2;Temp;Humidity;BMP_temperature;BMP_pressure;BME280_temperature;BME280_humidity;BME280_pressure;Samples;Min_cycle;Max_cycle;Signal;HPM_P1;HPM_P2
2024/01/25 00:00:58;;;;;;;18.73;3.77;;;8.50;99.90;;;;;;5158162;28;20197;-49
2024/01/25 00:03:29;;;;;;;22.57;4.10;;;8.50;99.90;;;;;;5159843;28;20610;-47
2024/01/25 00:06:00;;;;;;;22.80;3.83;;;8.50;99.90;;;;;;5184826;28;20205;-47
2024/01/25 00:08:30;;;;;;;16.60;3.83;;;8.50;99.90;;;;;;5183992;28;20236;-48
2024/01/25 00:11:05;;;;;;;26.93;5.10;;;8.50;99.90;;;;;;5152783;28;20276;-48
2024/01/25 00:13:37;;;;;;;21.00;4.40;;;8.50;99.90;;;;;;5210572;28;20605;-47
2024/01/25 00:16:08;;;;;;;24.23;3.97;;;8.50;99.90;;;;;;5188423;28;20491;-46
2024/01/25 00:18:39;;;;;;;23.90;4.33;;;8.40;99.90;;;;;;5176240;28;20471;-49
2024/01/25 00:21:09;;;;;;;29.37;4.10;;;8.50;99.90;;;;;;5171432;28;20182;-47
2024/01/25 00:23:40;;;;;;;22.30;5.30;;;8.50;99.90;;;;;;5190181;28;20240;-47
2024/01/25 00:26:10;;;;;;;15.33;3.90;;;8.50;99.90;;;;;;5202412;28;20233;-47
2024/01/25 00:28:41;;;;;;;24.70;4.53;;;8.50;99.90;;;;;;5208478;28;20227;-46
2024/01/25 00:31:12;;;;;;;25.17;4.17;;;8.40;99.90;;;;;;5176809;28;20238;-47
2024/01/25 00:33:42;;;;;;;26.40;6.00;;;8.40;99.90;;;;;;5167748;28;20181;-47
2024/01/25 00:36:14;;;;;;;20.60;4.70;;;8.40;99.90;;;;;;5201368;28;20213;-47
2024/01/25 00:38:45;;;;;;;17.63;3.93;;;8.40;99.90;;;;;;5198254;28;20508;-48
2024/01/25 00:41:19;;;;;;;28.10;3.87;;;8.40;99.90;;;;;;5194582;28;20440;-49
2024/01/25 00:43:50;;;;;;;25.13;3.87;;;8.40;99.90;;;;;;5185533;28;20444;-47
2024/01/25 00:46:20;;;;;;;24.97;5.03;;;8.40;99.90;;;;;;5186281;28;20461;-46
2024/01/25 00:48:51;;;;;;;26.67;4.80;;;8.30;99.90;;;;;;5168958;28;20492;-47
2024/01/25 00:51:25;;;;;;;19.13;4.23;;;8.40;99.90;;;;;;5194249;28;20179;-47
2024/01/25 00:53:56;;;;;;;27.27;3.90;;;8.40;99.90;;;;;;5186617;28;20649;-47
2024/01/25 00:56:27;;;;;;;21.27;4.70;;;8.40;99.90;;;;;;5202425;28;20455;-46
2024/01/25 00:58:58;;;;;;;15.13;3.27;;;8.30;99.90;;;;;;5204840;28;20225;-46
2024/01/25 01:01:29;;;;;;;16.87;3.53;;;8.30;99.90;;;;;;5216137;28;20653;-47
2024/01/25 01:04:00;;;;;;;18.50;3.90;;;8.30;99.90;;;;;;5197688;28;20272;-49
2024/01/25 01:06:31;;;;;;;23.07;4.80;;;8.40;99.90;;;;;;5212597;28;20448;-47
2024/01/25 01:09:01;;;;;;;28.23;3.70;;;8.40;99.90;;;;;;5201886;28;21140;-48
2024/01/25 01:11:32;;;;;;;18.50;4.30;;;8.40;99.90;;;;;;5192955;28;20643;-45
2024/01/25 01:14:02;;;;;;;16.07;3.93;;;8.30;99.90;;;;;;5169888;28;20218;-46
2024/01/25 01:16:35;;;;;;;15.90;4.23;;;8.30;99.90;;;;;;5201494;28;20210;-47
2024/01/25 01:19:07;;;;;;;22.40;4.10;;;8.30;99.90;;;;;;5245348;28;20205;-47
2024/01/25 01:21:41;;;;;;;15.90;3.40;;;8.30;99.90;;;;;;5203265;28;20532;-48
2024/01/25 01:24:11;;;;;;;20.73;3.93;;;8.30;99.90;;;;;;5196353;28;20964;-47
2024/01/25 01:26:42;;;;;;;16.87;4.03;;;8.40;99.90;;;;;;5221645;28;20436;-48
2024/01/25 01:29:13;;;;;;;10.70;3.43;;;8.40;99.90;;;;;;5222201;28;20730;-47
2024/01/25 01:31:43;;;;;;;15.17;4.00;;;8.40;99.90;;;;;;5179353;28;20179;-46
2024/01/25 01:34:14;;;;;;;17.33;4.07;;;8.40;99.90;;;;;;5205203;28;20201;-47
2024/01/25 01:36:44;;;;;;;21.53;4.10;;;8.40;99.90;;;;;;5191963;28;20686;-47
2024/01/25 01:39:15;;;;;;;24.90;4.30;;;8.40;99.90;;;;;;5189215;28;20689;-50
2024/01/25 01:41:49;;;;;;;22.10;3.90;;;8.40;99.90;;;;;;5205053;28;20186;-47
2024/01/25 01:44:20;;;;;;;13.13;3.10;;;8.30;99.90;;;;;;5194866;28;20206;-47
2024/01/25 01:46:51;;;;;;;24.67;5.00;;;8.30;99.90;;;;;;5198406;28;20443;-47
2024/01/25 01:49:22;;;;;;;27.53;4.63;;;8.30;99.90;;;;;;5154850;28;20856;-48
2024/01/25 01:51:53;;;;;;;19.70;3.77;;;8.30;99.90;;;;;;5158230;28;20193;-49
2024/01/25 01:54:25;;;;;;;12.53;3.67;;;8.30;99.90;;;;;;5200243;28;20561;-47
2024/01/25 01:56:56;;;;;;;10.37;3.57;;;8.30;99.90;;;;;;5221121;28;20261;-46
2024/01/25 01:59:26;;;;;;;21.07;4.17;;;8.30;99.90;;;;;;5230736;28;21025;-47
2024/01/25 02:01:57;;;;;;;17.37;3.83;;;8.30;99.90;;;;;;5161513;28;20200;-47
2024/01/25 02:04:27;;;;;;;21.03;4.40;;;8.30;99.90;;;;;;5221861;28;20295;-48
2024/01/25 02:06:58;;;;;;;16.90;4.03;;;8.20;99.90;;;;;;5240240;28;20682;-47
2024/01/25 02:09:29;;;;;;;15.97;4.03;;;8.30;99.90;;;;;;5205520;28;20228;-47
2024/01/25 02:12:03;;;;;;;19.33;4.23;;;8.20;99.90;;;;;;5173528;28;20548;-46
2024/01/25 02:14:34;;;;;;;17.83;4.40;;;8.20;99.90;;;;;;5191264;28;20298;-48
2024/01/25 02:17:04;;;;;;;14.40;3.70;;;8.20;99.90;;;;;;5232686;28;20957;-50
2024/01/25 02:19:35;;;;;;;22.40;4.60;;;8.20;99.90;;;;;;5228678;28;20530;-48
2024/01/25 02:22:06;;;;;;;16.93;3.40;;;8.20;99.90;;;;;;5196293;28;20186;-46
2024/01/25 02:24:37;;;;;;;22.57;4.63;;;8.20;99.90;;;;;;5204236;28;21310;-47
2024/01/25 02:27:07;;;;;;;27.33;4.13;;;8.20;99.90;;;;;;5218405;28;20460;-47
2024/01/25 02:29:38;;;;;;;31.87;5.33;;;8.20;99.90;;;;;;5197575;28;20631;-46
2024/01/25 02:32:09;;;;;;;14.93;4.10;;;8.10;99.90;;;;;;5185521;28;20590;-47
2024/01/25 02:34:39;;;;;;;15.97;4.70;;;8.10;99.90;;;;;;5197123;28;20565;-47
2024/01/25 02:37:12;;;;;;;16.07;3.73;;;8.10;99.90;;;;;;5206811;28;20261;-49
2024/01/25 02:39:42;;;;;;;11.90;3.63;;;8.20;99.90;;;;;;5190561;28;20182;-47
2024/01/25 02:42:14;;;;;;;22.97;4.93;;;8.20;99.90;;;;;;5158131;28;20421;-47
2024/01/25 02:44:44;;;;;;;17.30;3.77;;;8.20;99.90;;;;;;5194890;28;20317;-48
2024/01/25 02:47:15;;;;;;;16.93;3.40;;;8.10;99.90;;;;;;5190040;28;20433;-53
2024/01/25 02:49:46;;;;;;;18.00;4.13;;;8.10;99.90;;;;;;5197257;28;20530;-47
2024/01/25 02:52:16;;;;;;;27.63;4.97;;;8.10;99.90;;;;;;5163684;28;20190;-48
2024/01/25 02:54:47;;;;;;;29.53;4.17;;;8.10;99.90;;;;;;5214854;28;20210;-49
2024/01/25 02:57:18;;;;;;;17.03;4.83;;;8.10;99.90;;;;;;5241078;28;20241;-49
2024/01/25 02:59:48;;;;;;;23.00;4.23;;;8.00;99.90;;;;;;5228528;28;20261;-48
2024/01/25 03:02:19;;;;;;;17.00;3.90;;;8.00;99.90;;;;;;5186473;28;20503;-47
2024/01/25 03:04:50;;;;;;;25.67;4.47;;;8.00;99.90;;;;;;5196164;28;20198;-47
2024/01/25 03:07:20;;;;;;;22.70;5.10;;;7.90;99.90;;;;;;5184827;28;20662;-48
2024/01/25 03:09:51;;;;;;;34.20;4.73;;;8.00;99.90;;;;;;5179505;28;20202;-48
2024/01/25 03:12:21;;;;;;;14.47;3.67;;;8.00;99.90;;;;;;5258498;28;20236;-50
2024/01/25 03:14:52;;;;;;;16.57;4.40;;;8.10;99.90;;;;;;5178118;28;20202;-47
2024/01/25 03:17:23;;;;;;;15.03;4.00;;;8.00;99.90;;;;;;5172160;28;20193;-48
2024/01/25 03:19:54;;;;;;;13.57;3.53;;;8.10;99.90;;;;;;5173955;28;20268;-47
2024/01/25 03:22:24;;;;;;;24.17;4.67;;;8.10;99.90;;;;;;5192211;28;20190;-48
2024/01/25 03:24:55;;;;;;;16.23;3.53;;;8.00;99.90;;;;;;5189679;28;20640;-47
2024/01/25 03:27:26;;;;;;;29.80;5.80;;;8.10;99.90;;;;;;5198944;28;20285;-47
2024/01/25 03:29:56;;;;;;;27.90;4.53;;;8.10;99.90;;;;;;5154794;28;20186;-48
2024/01/25 03:32:27;;;;;;;24.50;4.70;;;8.00;99.90;;;;;;5194858;28;20265;-47
2024/01/25 03:34:58;;;;;;;20.90;4.27;;;8.10;99.90;;;;;;5187448;28;20206;-48
2024/01/25 03:37:28;;;;;;;19.27;4.53;;;8.00;99.90;;;;;;5214270;28;20189;-47
2024/01/25 03:39:59;;;;;;;15.13;4.97;;;8.00;99.90;;;;;;5196482;28;20185;-47
2024/01/25 03:42:30;;;;;;;27.73;5.43;;;8.00;99.90;;;;;;5210026;28;20170;-47
2024/01/25 03:45:00;;;;;;;15.30;4.30;;;8.00;99.90;;;;;;5191623;28;20205;-47
2024/01/25 03:47:31;;;;;;;24.60;4.10;;;8.00;99.90;;;;;;5220973;28;20241;-47
2024/01/25 03:50:01;;;;;;;21.70;4.60;;;7.90;99.90;;;;;;5192687;28;20265;-47
2024/01/25 03:52:32;;;;;;;17.17;3.30;;;8.00;99.90;;;;;;5162105;28;20230;-47
2024/01/25 03:55:04;;;;;;;18.53;3.57;;;7.90;99.90;;;;;;5190456;28;20549;-48
2024/01/25 03:57:36;;;;;;;27.90;4.97;;;8.00;99.90;;;;;;5211544;28;20697;-47
2024/01/25 04:00:07;;;;;;;19.90;4.60;;;7.90;99.90;;;;;;5212555;28;20429;-47
2024/01/25 04:02:37;;;;;;;23.33;4.60;;;7.90;99.90;;;;;;5194700;28;20957;-48
2024/01/25 04:05:08;;;;;;;18.03;4.10;;;7.90;99.90;;;;;;5210472;28;20543;-46
2024/01/25 04:07:39;;;;;;;19.20;4.00;;;8.00;99.90;;;;;;5189156;28;20259;-47
2024/01/25 04:10:10;;;;;;;14.93;3.83;;;7.90;99.90;;;;;;5173267;28;20228;-47
2024/01/25 04:12:41;;;;;;;22.43;3.90;;;7.90;99.90;;;;;;5238554;28;20681;-47
2024/01/25 04:15:11;;;;;;;22.03;4.60;;;7.90;99.90;;;;;;5213222;28;20448;-46
2024/01/25 04:17:42;;;;;;;33.67;3.87;;;7.90;99.90;;;;;;5181552;28;20185;-47
2024/01/25 04:20:12;;;;;;;22.07;3.87;;;7.90;99.90;;;;;;5239780;28;20259;-47
2024/01/25 04:22:43;;;;;;;19.90;3.70;;;7.90;99.90;;;;;;5246543;28;20254;-49
2024/01/25 04:25:14;;;;;;;15.70;4.33;;;7.80;99.90;;;;;;5219392;28;20209;-47
2024/01/25 04:27:44;;;;;;;16.37;3.80;;;7.80;99.90;;;;;;5183913;28;20217;-47
2024/01/25 04:30:15;;;;;;;24.53;5.07;;;7.90;99.90;;;;;;5182791;28;20177;-49
2024/01/25 04:32:46;;;;;;;17.13;3.70;;;7.90;99.90;;;;;;5203696;28;20186;-47
2024/01/25 04:35:16;;;;;;;27.40;4.60;;;7.90;99.90;;;;;;5208190;28;20644;-48
2024/01/25 04:37:47;;;;;;;20.33;3.90;;;7.90;99.90;;;;;;5174028;28;20251;-48
2024/01/25 04:40:19;;;;;;;18.23;3.87;;;7.80;99.90;;;;;;5227532;28;20194;-50
2024/01/25 04:42:49;;;;;;;35.47;5.20;;;7.90;99.90;;;;;;5179537;28;20177;-49
2024/01/25 04:45:20;;;;;;;17.00;5.03;;;7.80;99.90;;;;;;5178853;28;20814;-51
2024/01/25 04:47:50;;;;;;;24.57;4.20;;;7.80;99.90;;;;;;5185762;28;20211;-48
2024/01/25 04:50:21;;;;;;;18.17;4.80;;;7.80;99.90;;;;;;5191680;28;20190;-50
2024/01/25 04:52:52;;;;;;;25.47;4.23;;;7.80;99.90;;;;;;5193421;28;20186;-49
2024/01/25 04:55:22;;;;;;;29.40;5.43;;;7.80;99.90;;;;;;5222106;28;20210;-50
2024/01/25 04:57:53;;;;;;;16.50;3.70;;;7.70;99.90;;;;;;5191796;28;20225;-49
2024/01/25 05:00:24;;;;;;;20.97;3.80;;;7.70;99.90;;;;;;5205915;28;20209;-50
2024/01/25 05:02:54;;;;;;;28.13;4.30;;;7.70;99.90;;;;;;5242136;28;20186;-50
2024/01/25 05:05:25;;;;;;;18.77;4.87;;;7.80;99.90;;;;;;5181693;28;20194;-49
2024/01/25 05:07:56;;;;;;;23.70;4.80;;;7.80;99.90;;;;;;5170921;28;20742;-51
2024/01/25 05:10:27;;;;;;;24.03;4.37;;;7.80;99.90;;;;;;5194970;28;20592;-51
2024/01/25 05:12:58;;;;;;;20.77;4.53;;;7.70;99.90;;;;;;5212408;28;20189;-51
2024/01/25 05:15:28;;;;;;;16.00;3.70;;;7.70;99.90;;;;;;5197495;28;20496;-49
2024/01/25 05:17:59;;;;;;;19.67;5.23;;;7.70;99.90;;;;;;5151905;28;20735;-50
2024/01/25 05:20:32;;;;;;;17.97;4.97;;;7.80;99.90;;;;;;5185815;28;20630;-51
2024/01/25 05:23:04;;;;;;;20.17;5.30;;;7.80;99.90;;;;;;5187470;28;20178;-51
2024/01/25 05:25:34;;;;;;;22.07;4.00;;;7.80;99.90;;;;;;5196163;28;20473;-52
2024/01/25 05:28:05;;;;;;;19.97;5.80;;;7.80;99.90;;;;;;5168938;28;20476;-50
2024/01/25 05:30:36;;;;;;;21.97;4.37;;;7.70;99.90;;;;;;5165698;28;20551;-50
2024/01/25 05:33:06;;;;;;;25.73;5.10;;;7.70;99.90;;;;;;5186486;28;20186;-50
2024/01/25 05:35:37;;;;;;;25.20;5.20;;;7.70;99.90;;;;;;5197197;23;20210;-52
2024/01/25 05:38:08;;;;;;;20.63;5.10;;;7.70;99.90;;;;;;5228453;28;20642;-51
2024/01/25 05:40:38;;;;;;;10.87;3.40;;;7.80;99.90;;;;;;5224020;28;20183;-53
2024/01/25 05:43:09;;;;;;;26.57;4.20;;;7.70;99.90;;;;;;5223012;28;20179;-51
2024/01/25 05:45:40;;;;;;;25.30;4.20;;;7.70;99.90;;;;;;5229630;28;20182;-52
2024/01/25 05:48:10;;;;;;;18.80;3.77;;;7.70;99.90;;;;;;5221821;28;20248;-52
2024/01/25 05:50:41;;;;;;;18.70;3.83;;;7.80;99.90;;;;;;5220050;28;20202;-51
2024/01/25 05:53:12;;;;;;;25.20;3.87;;;7.70;99.90;;;;;;5234095;28;20177;-50
2024/01/25 05:55:43;;;;;;;16.30;4.30;;;7.70;99.90;;;;;;5243412;28;20183;-52
2024/01/25 05:58:14;;;;;;;18.63;4.07;;;7.70;99.90;;;;;;5235375;28;20969;-52
2024/01/25 06:00:44;;;;;;;28.43;4.00;;;7.60;99.90;;;;;;5238886;28;20182;-53
2024/01/25 06:03:15;;;;;;;33.03;4.67;;;7.70;99.90;;;;;;5236626;28;20179;-52
2024/01/25 06:05:46;;;;;;;21.23;4.97;;;7.70;99.90;;;;;;5242539;28;20651;-52
2024/01/25 06:08:16;;;;;;;23.17;3.70;;;7.70;99.90;;;;;;5222554;28;20219;-52
2024/01/25 06:10:47;;;;;;;17.23;4.00;;;7.70;99.90;;;;;;5214079;28;20185;-52
2024/01/25 06:13:18;;;;;;;12.73;3.43;;;7.70;99.90;;;;;;5214668;28;20219;-51
2024/01/25 06:15:49;;;;;;;16.80;3.50;;;7.80;99.90;;;;;;5216296;28;20548;-53
2024/01/25 06:18:19;;;;;;;29.97;4.03;;;7.70;99.90;;;;;;5221280;28;20185;-53
2024/01/25 06:20:51;;;;;;;20.30;4.53;;;7.80;99.90;;;;;;5221343;28;20219;-53
2024/01/25 06:23:21;;;;;;;25.33;4.43;;;7.70;99.90;;;;;;5221595;28;20439;-53
2024/01/25 06:25:52;;;;;;;20.73;4.00;;;7.70;99.90;;;;;;5220553;28;20504;-52
2024/01/25 06:28:23;;;;;;;10.43;2.80;;;7.70;99.90;;;;;;5223391;28;20609;-53
2024/01/25 06:30:53;;;;;;;9.90;3.27;;;7.70;99.90;;;;;;5225335;28;20221;-54
2024/01/25 06:33:24;;;;;;;16.00;3.93;;;7.70;99.90;;;;;;5222028;28;20179;-50
2024/01/25 06:35:56;;;;;;;18.17;3.23;;;7.70;99.90;;;;;;5222754;28;20280;-51
2024/01/25 06:38:26;;;;;;;13.77;2.60;;;7.70;99.90;;;;;;5222590;28;20199;-51
2024/01/25 06:40:57;;;;;;;19.57;3.67;;;7.60;99.90;;;;;;5225186;28;20441;-53
2024/01/25 06:43:28;;;;;;;26.03;3.70;;;7.60;99.90;;;;;;5226283;28;20640;-52
2024/01/25 06:45:58;;;;;;;21.27;3.80;;;7.60;99.90;;;;;;5224128;28;20198;-52
2024/01/25 06:48:29;;;;;;;20.63;3.40;;;7.60;99.90;;;;;;5222367;28;20211;-53
2024/01/25 06:51:01;;;;;;;13.30;2.87;;;7.70;99.90;;;;;;5222882;28;20178;-52
2024/01/25 06:53:32;;;;;;;8.77;2.80;;;7.60;99.90;;;;;;5225265;28;20947;-53
2024/01/25 06:56:03;;;;;;;8.27;2.90;;;7.70;99.90;;;;;;5226043;28;20488;-52
2024/01/25 06:58:33;;;;;;;16.73;3.67;;;7.70;99.90;;;;;;5222589;28;20248;-53
2024/01/25 07:01:06;;;;;;;21.80;4.13;;;7.70;99.90;;;;;;5222877;28;20179;-52
2024/01/25 07:03:37;;;;;;;16.50;3.33;;;7.60;99.90;;;;;;5222134;28;20207;-52
2024/01/25 07:06:08;;;;;;;10.77;2.90;;;7.70;99.90;;;;;;5241911;28;20488;-52
2024/01/25 07:08:39;;;;;;;12.50;2.87;;;7.70;99.90;;;;;;5227404;28;20195;-53
2024/01/25 07:11:10;;;;;;;15.33;3.63;;;7.70;99.90;;;;;;5219094;28;20248;-52
2024/01/25 07:13:41;;;;;;;14.97;3.20;;;7.70;99.90;;;;;;5240066;28;20453;-52
2024/01/25 07:16:12;;;;;;;14.00;3.47;;;7.70;99.90;;;;;;5222088;28;20445;-51
2024/01/25 07:18:43;;;;;;;29.73;3.80;;;7.80;99.90;;;;;;5236422;28;20418;-53
2024/01/25 07:21:13;;;;;;;25.83;4.10;;;7.70;99.90;;;;;;5219563;28;20266;-53
2024/01/25 07:23:44;;;;;;;10.63;2.83;;;7.80;99.90;;;;;;5223597;28;20182;-52
2024/01/25 07:26:18;;;;;;;14.80;3.30;;;7.70;99.90;;;;;;5221114;28;20203;-52
2024/01/25 07:28:49;;;;;;;16.80;3.50;;;7.70;99.90;;;;;;5220346;28;20542;-53
2024/01/25 07:31:20;;;;;;;27.97;4.10;;;7.70;99.90;;;;;;5221089;28;20436;-54
2024/01/25 07:33:50;;;;;;;19.47;4.60;;;7.80;99.90;;;;;;5224900;28;20247;-53
2024/01/25 07:36:21;;;;;;;18.00;4.47;;;7.80;99.90;;;;;;5226689;28;20544;-53
2024/01/25 07:38:52;;;;;;;28.83;4.10;;;7.70;99.90;;;;;;5226049;28;20193;-52
2024/01/25 07:41:22;;;;;;;12.80;2.50;;;7.70;99.90;;;;;;5220217;28;20186;-52
2024/01/25 07:43:55;;;;;;;20.50;4.20;;;7.70;99.90;;;;;;5225174;28;20240;-51
2024/01/25 07:46:25;;;;;;;23.77;3.43;;;7.90;99.90;;;;;;5226851;28;20301;-53
2024/01/25 07:48:56;;;;;;;11.83;3.60;;;7.90;99.90;;;;;;5238985;28;21088;-52
2024/01/25 07:51:28;;;;;;;13.00;3.90;;;7.90;99.90;;;;;;5223359;28;20180;-53
2024/01/25 07:53:59;;;;;;;16.67;4.07;;;7.90;99.90;;;;;;5218430;28;20175;-52
2024/01/25 07:56:29;;;;;;;10.67;2.90;;;7.90;99.90;;;;;;5224287;28;20593;-52
2024/01/25 07:59:00;;;;;;;17.87;3.57;;;7.90;99.90;;;;;;5222299;28;20183;-51
2024/01/25 08:01:31;;;;;;;18.47;3.83;;;7.90;99.90;;;;;;5223614;28;20183;-53
2024/01/25 08:04:03;;;;;;;17.50;3.73;;;7.90;99.90;;;;;;5233889;28;20187;-52
2024/01/25 08:06:34;;;;;;;19.83;4.13;;;8.00;99.90;;;;;;5217352;28;20198;-55
2024/01/25 08:09:04;;;;;;;18.20;3.73;;;7.90;99.90;;;;;;5213605;28;20453;-53
2024/01/25 08:11:35;;;;;;;32.00;4.17;;;8.00;99.90;;;;;;5217722;28;20187;-53
2024/01/25 08:14:05;;;;;;;20.97;2.90;;;7.90;99.90;;;;;;5214456;28;20175;-52
2024/01/25 08:16:36;;;;;;;21.67;4.50;;;7.90;99.90;;;;;;5210986;28;20203;-52
2024/01/25 08:19:07;;;;;;;12.53;4.37;;;8.10;99.90;;;;;;5216778;28;20213;-53
2024/01/25 08:21:38;;;;;;;25.50;4.53;;;8.10;99.90;;;;;;5214773;28;20192;-51
2024/01/25 08:24:08;;;;;;;21.07;3.90;;;8.10;99.90;;;;;;5212284;28;20199;-54
2024/01/25 08:26:39;;;;;;;19.53;4.00;;;8.10;99.90;;;;;;5218004;28;20290;-52
2024/01/25 08:29:10;;;;;;;23.13;4.60;;;8.10;99.90;;;;;;5214805;28;20667;-52
2024/01/25 08:31:41;;;;;;;22.53;4.07;;;8.00;99.90;;;;;;5211196;28;20179;-53
2024/01/25 08:34:12;;;;;;;24.13;4.90;;;8.20;99.90;;;;;;5215978;28;20500;-52
2024/01/25 08:36:42;;;;;;;16.00;4.30;;;8.20;99.90;;;;;;5214261;28;20214;-52
2024/01/25 08:39:14;;;;;;;15.87;3.67;;;8.20;99.90;;;;;;5215344;28;20213;-52
2024/01/25 08:41:46;;;;;;;32.30;3.93;;;8.30;99.90;;;;;;5213652;28;20175;-52
2024/01/25 08:44:17;;;;;;;16.57;4.10;;;8.20;99.90;;;;;;5212982;28;20522;-52
2024/01/25 08:46:48;;;;;;;13.80;3.60;;;8.20;99.90;;;;;;5213320;28;20865;-51
2024/01/25 08:49:18;;;;;;;14.23;4.03;;;8.30;99.90;;;;;;5218516;28;20214;-52
2024/01/25 08:51:50;;;;;;;22.20;3.47;;;8.30;99.90;;;;;;5217957;28;20674;-53
2024/01/25 08:54:20;;;;;;;17.57;3.47;;;8.30;99.90;;;;;;5222260;28;20175;-53
2024/01/25 08:56:51;;;;;;;19.93;4.13;;;8.40;99.90;;;;;;5219233;28;20460;-53
2024/01/25 08:59:21;;;;;;;17.97;4.00;;;8.40;99.90;;;;;;5221157;28;20200;-53
2024/01/25 09:01:52;;;;;;;21.63;3.50;;;8.30;99.90;;;;;;5222765;28;20185;-51
2024/01/25 09:04:23;;;;;;;19.73;3.97;;;8.30;99.90;;;;;;5225576;28;20667;-52
2024/01/25 09:06:53;;;;;;;10.60;2.90;;;8.20;99.90;;;;;;5240421;28;20205;-52
2024/01/25 09:09:24;;;;;;;24.17;5.60;;;8.30;99.90;;;;;;5220437;28;20203;-52
2024/01/25 09:11:55;;;;;;;19.93;4.40;;;8.20;99.90;;;;;;5223728;28;20207;-51
2024/01/25 09:14:26;;;;;;;23.23;3.97;;;8.20;99.90;;;;;;5221676;28;20682;-52
2024/01/25 09:16:56;;;;;;;17.30;3.80;;;8.20;99.90;;;;;;5221478;28;20449;-52
2024/01/25 09:19:27;;;;;;;11.93;3.60;;;8.20;99.90;;;;;;5219890;28;20265;-51
2024/01/25 09:22:01;;;;;;;12.07;3.93;;;8.10;99.90;;;;;;5222496;28;20238;-53
2024/01/25 09:24:34;;;;;;;14.07;3.60;;;8.20;99.90;;;;;;5223898;28;20179;-52
2024/01/25 09:27:05;;;;;;;16.77;3.77;;;8.10;99.90;;;;;;5226388;28;20543;-52
2024/01/25 09:29:38;;;;;;;17.43;3.47;;;8.10;99.90;;;;;;5215188;28;20851;-51
2024/01/25 09:32:09;;;;;;;26.53;4.50;;;8.20;99.90;;;;;;5216978;28;20217;-52
2024/01/25 09:34:40;;;;;;;13.20;4.37;;;8.20;99.90;;;;;;5219224;28;20445;-53
2024/01/25 09:37:11;;;;;;;23.23;5.30;;;8.20;99.90;;;;;;5235132;28;20449;-52
2024/01/25 09:39:42;;;;;;;13.83;3.33;;;8.20;99.90;;;;;;5229229;28;20185;-51
2024/01/25 09:42:12;;;;;;;20.17;3.90;;;8.10;99.90;;;;;;5238526;28;20469;-52
2024/01/25 09:44:43;;;;;;;13.80;4.17;;;8.10;99.90;;;;;;5233478;28;20267;-50
2024/01/25 09:47:16;;;;;;;27.57;3.60;;;8.20;99.90;;;;;;5228144;28;20458;-49
2024/01/25 09:49:47;;;;;;;14.53;4.47;;;8.20;99.90;;;;;;5224192;28;20452;-52
2024/01/25 09:52:25;;;;;;;12.90;4.00;;;8.30;99.90;;;;;;5229484;28;20959;-51
2024/01/25 09:54:56;;;;;;;27.10;4.70;;;8.10;99.90;;;;;;5235435;28;20174;-51
2024/01/25 09:57:30;;;;;;;10.70;4.30;;;8.20;99.90;;;;;;5226960;28;20497;-51
2024/01/25 10:00:01;;;;;;;23.53;4.40;;;8.20;99.90;;;;;;5223353;28;20494;-51
2024/01/25 10:02:31;;;;;;;14.43;3.40;;;8.10;99.90;;;;;;5227698;28;20453;-53
2024/01/25 10:05:02;;;;;;;16.37;3.63;;;8.20;99.90;;;;;;5228370;28;20175;-51
2024/01/25 10:07:43;;;;;;;28.63;4.10;;;8.20;99.90;;;;;;5229704;28;20261;-54
2024/01/25 10:10:14;;;;;;;8.87;3.17;;;8.20;99.90;;;;;;5223847;28;20427;-51
2024/01/25 10:12:45;;;;;;;15.33;3.10;;;8.20;99.90;;;;;;5221971;28;20430;-51
2024/01/25 10:15:16;;;;;;;13.77;4.43;;;8.20;99.90;;;;;;5220549;28;20859;-52
2024/01/25 10:17:46;;;;;;;19.43;4.10;;;8.10;99.90;;;;;;5234628;28;20230;-51
2024/01/25 10:20:17;;;;;;;17.43;4.50;;;8.10;99.90;;;;;;5220486;28;20187;-55
2024/01/25 10:22:48;;;;;;;25.47;3.47;;;8.20;99.90;;;;;;5221018;28;20286;-52
2024/01/25 10:25:18;;;;;;;20.37;4.13;;;8.30;99.90;;;;;;5218533;28;20195;-51
2024/01/25 10:27:49;;;;;;;22.13;4.73;;;8.40;99.90;;;;;;5222397;28;20207;-54
2024/01/25 10:30:20;;;;;;;15.90;3.60;;;8.40;99.90;;;;;;5219867;28;20199;-52
2024/01/25 10:32:52;;;;;;;16.37;4.60;;;8.40;99.90;;;;;;5223305;28;20175;-52
2024/01/25 10:35:24;;;;;;;10.17;3.03;;;8.40;99.90;;;;;;5222503;28;20694;-52
2024/01/25 10:37:55;;;;;;;14.17;3.47;;;8.40;99.90;;;;;;5244837;28;20539;-51
2024/01/25 10:40:28;;;;;;;17.20;3.00;;;8.60;99.90;;;;;;5224599;28;20526;-52
2024/01/25 10:42:58;;;;;;;26.17;4.50;;;8.60;99.90;;;;;;5237520;28;20184;-51
2024/01/25 10:45:29;;;;;;;20.93;4.17;;;8.50;99.90;;;;;;5224532;28;20445;-51
2024/01/25 10:48:00;;;;;;;27.00;4.27;;;8.40;99.90;;;;;;5226784;28;20237;-51
2024/01/25 10:50:30;;;;;;;15.97;3.40;;;8.50;99.90;;;;;;5220150;28;20201;-52
2024/01/25 10:53:02;;;;;;;23.87;3.93;;;8.60;99.90;;;;;;5224381;28;20175;-52
2024/01/25 10:55:34;;;;;;;18.33;4.83;;;8.50;99.90;;;;;;5228407;28;20271;-52
2024/01/25 10:58:08;;;;;;;8.33;3.53;;;8.70;99.90;;;;;;5222364;28;20438;-51
2024/01/25 11:00:39;;;;;;;16.20;3.47;;;8.90;99.90;;;;;;5218901;28;20486;-51
2024/01/25 11:03:10;;;;;;;11.40;2.70;;;8.90;99.90;;;;;;5224986;28;20936;-51
2024/01/25 11:05:40;;;;;;;22.63;4.07;;;9.00;99.90;;;;;;5222578;28;20618;-51
2024/01/25 11:08:19;;;;;;;10.37;3.67;;;9.00;99.90;;;;;;5221881;28;20465;-52
2024/01/25 11:10:54;;;;;;;21.40;4.40;;;9.10;99.90;;;;;;5240903;28;20188;-51
2024/01/25 11:13:27;;;;;;;16.77;3.60;;;9.20;99.90;;;;;;5231232;28;20420;-51
2024/01/25 11:15:58;;;;;;;14.03;3.30;;;9.20;99.90;;;;;;5224345;28;20541;-53
2024/01/25 11:18:28;;;;;;;14.77;3.40;;;9.10;99.90;;;;;;5221080;28;20533;-52
2024/01/25 11:21:01;;;;;;;13.13;3.80;;;9.10;99.90;;;;;;5225274;28;20175;-51
2024/01/25 11:23:32;;;;;;;16.73;2.93;;;9.30;99.90;;;;;;5223325;28;20198;-52
2024/01/25 11:26:08;;;;;;;33.20;4.47;;;9.10;99.90;;;;;;5222717;28;20449;-53
2024/01/25 11:28:38;;;;;;;18.97;3.30;;;9.00;99.90;;;;;;5223033;28;20460;-53
2024/01/25 11:31:09;;;;;;;13.07;3.93;;;9.20;99.90;;;;;;5204481;28;20426;-51
2024/01/25 11:33:40;;;;;;;15.13;3.53;;;9.40;99.90;;;;;;5224545;28;20225;-53
2024/01/25 11:36:11;;;;;;;23.47;4.13;;;9.40;99.90;;;;;;5228236;28;20207;-52
2024/01/25 11:38:43;;;;;;;13.60;3.90;;;9.50;99.90;;;;;;5225093;28;20189;-52
2024/01/25 11:41:13;;;;;;;20.83;5.27;;;9.40;99.90;;;;;;5224930;28;20510;-53
2024/01/25 11:43:48;;;;;;;21.03;3.80;;;9.40;99.90;;;;;;5231617;28;20269;-51
2024/01/25 11:46:19;;;;;;;22.80;3.50;;;9.50;99.90;;;;;;5205038;28;20462;-52
2024/01/25 11:48:49;;;;;;;15.20;2.87;;;9.50;99.90;;;;;;5230694;28;20988;-51
2024/01/25 11:51:20;;;;;;;12.27;4.20;;;9.40;99.90;;;;;;5222612;28;20182;-51
2024/01/25 11:53:51;;;;;;;19.50;4.40;;;9.40;99.90;;;;;;5224294;28;20183;-52
2024/01/25 11:56:28;;;;;;;13.87;3.23;;;9.30;99.90;;;;;;5225148;28;20205;-52
2024/01/25 11:59:00;;;;;;;19.87;3.90;;;9.30;99.90;;;;;;5228670;28;20179;-53
2024/01/25 12:01:31;;;;;;;19.50;3.77;;;9.40;99.90;;;;;;5225216;28;21031;-50
2024/01/25 12:04:03;;;;;;;22.33;3.20;;;9.30;99.90;;;;;;5206869;28;20517;-50
2024/01/25 12:06:35;;;;;;;18.07;4.83;;;9.20;99.90;;;;;;5221640;28;20466;-51
2024/01/25 12:09:08;;;;;;;18.07;4.10;;;9.30;99.90;;;;;;5217072;28;20463;-53
2024/01/25 12:11:40;;;;;;;14.60;4.07;;;9.30;99.90;;;;;;5235357;28;20480;-52
2024/01/25 12:14:11;;;;;;;20.30;3.80;;;9.30;99.90;;;;;;5219487;28;20512;-53
2024/01/25 12:16:42;;;;;;;11.70;2.80;;;9.10;99.90;;;;;;5218324;28;20447;-53
2024/01/25 12:19:13;;;;;;;12.20;3.20;;;9.10;99.90;;;;;;5218214;28;20193;-54
2024/01/25 12:21:47;;;;;;;16.73;3.60;;;9.10;99.90;;;;;;5222761;28;20437;-52
2024/01/25 12:24:19;;;;;;;18.43;3.63;;;9.10;99.90;;;;;;5221879;28;20182;-53
2024/01/25 12:26:50;;;;;;;9.13;2.80;;;9.20;99.90;;;;;;5212927;28;20452;-52
2024/01/25 12:29:21;;;;;;;19.03;3.70;;;9.20;99.90;;;;;;5219093;28;21084;-52
2024/01/25 12:31:51;;;;;;;18.07;2.70;;;9.40;99.90;;;;;;5233087;28;20175;-54
2024/01/25 12:34:22;;;;;;;17.20;3.57;;;9.40;99.90;;;;;;5221255;28;20174;-53
2024/01/25 12:36:52;;;;;;;14.10;3.23;;;9.60;99.90;;;;;;5229091;28;20225;-54
2024/01/25 12:39:23;;;;;;;7.47;2.83;;;9.60;99.90;;;;;;5222054;28;20186;-52
2024/01/25 12:41:54;;;;;;;16.13;3.43;;;9.50;99.90;;;;;;5221946;28;20317;-53
2024/01/25 12:44:25;;;;;;;9.50;3.20;;;9.50;99.90;;;;;;5221579;28;20198;-54
2024/01/25 12:46:55;;;;;;;21.40;3.70;;;9.50;99.90;;;;;;5221566;28;20214;-53
2024/01/25 12:49:26;;;;;;;8.27;3.33;;;9.50;99.90;;;;;;5231905;28;20465;-53
2024/01/25 12:51:57;;;;;;;13.30;3.23;;;9.40;99.90;;;;;;5233721;28;20187;-54
2024/01/25 12:54:28;;;;;;;12.03;3.87;;;9.30;99.90;;;;;;5228342;28;20239;-53
2024/01/25 12:56:59;;;;;;;9.90;3.10;;;9.30;99.90;;;;;;5216581;28;20198;-53
2024/01/25 12:59:29;;;;;;;16.20;3.90;;;9.20;99.90;;;;;;5238546;28;21579;-53
2024/01/25 13:02:00;;;;;;;11.23;4.37;;;9.30;99.90;;;;;;5228957;28;20307;-54
2024/01/25 13:04:31;;;;;;;12.43;4.30;;;9.30;99.90;;;;;;5231293;28;20200;-51
2024/01/25 13:07:02;;;;;;;22.33;4.30;;;9.20;99.90;;;;;;5225748;28;20197;-52